createdAt,value
2023-05-09T00:00:17.108Z,11.87
2023-05-09T00:02:43.862Z,10.00
2023-05-09T00:05:10.446Z,9.27
2023-05-09T00:07:36.979Z,10.05
2023-05-09T00:10:04.046Z,10.68
2023-05-09T00:12:30.678Z,10.37
2023-05-09T00:14:58.577Z,10.57
2023-05-09T00:17:25.590Z,11.35
2023-05-09T00:19:52.474Z,10.50
2023-05-09T00:22:20.100Z,11.52
2023-05-09T00:24:46.758Z,9.60
2023-05-09T00:27:13.371Z,10.97
2023-05-09T00:29:40.038Z,10.30
2023-05-09T00:32:08.127Z,11.80
2023-05-09T00:34:34.923Z,9.88
2023-05-09T00:37:01.428Z,13.00
2023-05-09T00:39:28.249Z,9.00
2023-05-09T00:41:55.933Z,9.43
2023-05-09T00:44:22.563Z,10.02
2023-05-09T00:46:49.337Z,10.00
2023-05-09T00:49:17.163Z,9.52
2023-05-09T00:51:43.868Z,9.30
2023-05-09T00:54:10.507Z,10.38
2023-05-09T00:56:37.235Z,9.30
2023-05-09T00:59:03.872Z,9.57
2023-05-09T01:01:30.414Z,11.15
2023-05-09T01:03:56.927Z,11.47
2023-05-09T01:06:32.742Z,9.60
2023-05-09T01:09:03.288Z,13.45
2023-05-09T01:11:34.430Z,10.30
2023-05-09T01:14:10.450Z,9.95
2023-05-09T01:16:41.273Z,9.83
2023-05-09T01:19:26.884Z,11.17
2023-05-09T01:21:56.344Z,10.57
2023-05-09T01:24:40.076Z,10.95
2023-05-09T01:27:21.040Z,10.38
2023-05-09T01:29:54.124Z,9.73
2023-05-09T01:32:25.194Z,10.80
2023-05-09T01:34:54.544Z,10.05
2023-05-09T01:37:25.939Z,9.02
2023-05-09T01:39:55.840Z,12.10
2023-05-09T01:42:23.971Z,9.48
2023-05-09T01:44:54.108Z,9.97
2023-05-09T01:47:21.154Z,12.05
2023-05-09T01:49:48.170Z,10.98
2023-05-09T01:52:18.460Z,9.40
2023-05-09T01:54:46.037Z,10.02
2023-05-09T01:57:14.454Z,11.00
2023-05-09T01:59:43.141Z,12.10
2023-05-09T02:02:12.118Z,9.93
2023-05-09T02:04:41.367Z,11.60
2023-05-09T02:07:08.268Z,11.40
2023-05-09T02:09:35.033Z,10.75
2023-05-09T02:12:01.761Z,11.67
2023-05-09T02:14:28.245Z,11.68
2023-05-09T02:16:54.885Z,10.70
2023-05-09T02:19:22.931Z,11.07
2023-05-09T02:21:49.730Z,10.65
2023-05-09T02:24:16.265Z,9.73
2023-05-09T02:26:43.264Z,10.13
2023-05-09T02:29:10.852Z,10.15
2023-05-09T02:31:40.995Z,10.13
2023-05-09T02:34:09.735Z,10.02
2023-05-09T02:36:38.413Z,10.73
2023-05-09T02:39:05.024Z,10.00
2023-05-09T02:41:31.669Z,10.82
2023-05-09T02:43:58.193Z,11.52
2023-05-09T02:46:25.087Z,10.80
2023-05-09T02:48:51.573Z,11.05
2023-05-09T02:51:18.244Z,11.90
2023-05-09T02:53:46.280Z,11.00
2023-05-09T02:56:12.786Z,11.10
2023-05-09T02:58:39.430Z,10.43
2023-05-09T03:01:05.915Z,11.52
2023-05-09T03:03:32.782Z,11.97
2023-05-09T03:05:59.334Z,10.88
2023-05-09T03:08:25.876Z,11.30
2023-05-09T03:10:53.891Z,10.57
2023-05-09T03:13:20.414Z,11.00
2023-05-09T03:15:46.983Z,11.70
2023-05-09T03:18:13.740Z,11.23
2023-05-09T03:20:40.534Z,11.55
2023-05-09T03:23:07.072Z,9.90
2023-05-09T03:25:33.766Z,10.43
2023-05-09T03:28:01.877Z,10.73
2023-05-09T03:30:28.378Z,9.00
2023-05-09T03:32:54.939Z,10.15
2023-05-09T03:35:21.628Z,9.38
2023-05-09T03:37:48.262Z,10.18
2023-05-09T03:40:15.061Z,8.87
2023-05-09T03:42:41.512Z,8.52
2023-05-09T03:45:10.687Z,9.27
2023-05-09T03:47:37.264Z,11.10
2023-05-09T03:50:04.226Z,9.38
2023-05-09T03:52:30.701Z,8.90
2023-05-09T03:54:57.219Z,10.23
2023-05-09T03:57:23.898Z,9.77
2023-05-09T03:59:50.523Z,8.65
2023-05-09T04:02:18.502Z,9.20
2023-05-09T04:04:45.310Z,9.63
2023-05-09T04:07:11.872Z,9.48
2023-05-09T04:09:38.548Z,9.10
2023-05-09T04:12:05.603Z,9.13
2023-05-09T04:14:32.154Z,8.98
2023-05-09T04:16:58.685Z,8.53
2023-05-09T04:19:26.640Z,8.38
2023-05-09T04:21:53.177Z,8.35
2023-05-09T04:24:19.857Z,8.18
2023-05-09T04:26:46.412Z,8.45
2023-05-09T04:29:12.976Z,9.57
2023-05-09T04:31:39.543Z,8.23
2023-05-09T04:34:06.199Z,8.63
2023-05-09T04:36:34.102Z,8.88
2023-05-09T04:39:00.998Z,8.52
2023-05-09T04:41:27.518Z,7.90
2023-05-09T04:43:54.094Z,8.65
2023-05-09T04:46:20.798Z,8.70
2023-05-09T04:48:47.976Z,8.13
2023-05-09T04:51:14.645Z,8.18
2023-05-09T04:53:42.478Z,8.67
2023-05-09T04:56:09.000Z,8.00
2023-05-09T04:58:35.623Z,8.48
2023-05-09T05:01:02.155Z,7.82
2023-05-09T05:03:28.779Z,7.85
2023-05-09T05:05:55.318Z,8.63
2023-05-09T05:08:21.811Z,7.30
2023-05-09T05:10:50.044Z,7.80
2023-05-09T05:13:17.054Z,8.05
2023-05-09T05:15:43.565Z,7.60
2023-05-09T05:18:10.180Z,7.50
2023-05-09T05:20:36.698Z,7.97
2023-05-09T05:23:03.385Z,8.15
2023-05-09T05:25:29.942Z,8.43
2023-05-09T05:27:57.889Z,7.30
2023-05-09T05:30:24.577Z,7.43
2023-05-09T05:32:51.169Z,7.43
2023-05-09T05:35:17.858Z,8.82
2023-05-09T05:37:44.357Z,7.43
2023-05-09T05:40:11.357Z,9.70
2023-05-09T05:42:37.852Z,7.93
2023-05-09T05:45:07.097Z,8.65
2023-05-09T05:47:34.498Z,8.35
2023-05-09T05:50:02.664Z,8.10
2023-05-09T05:52:29.520Z,8.60
2023-05-09T05:54:56.259Z,7.40
2023-05-09T05:57:22.955Z,7.10
2023-05-09T05:59:50.346Z,8.40
2023-05-09T06:02:18.755Z,7.85
2023-05-09T06:04:45.254Z,7.78
2023-05-09T06:07:12.575Z,8.80
2023-05-09T06:09:39.302Z,7.47
2023-05-09T06:12:06.048Z,7.85
2023-05-09T06:14:32.638Z,7.57
2023-05-09T06:16:59.216Z,8.30
2023-05-09T06:19:27.327Z,9.90
2023-05-09T06:21:53.889Z,8.95
2023-05-09T06:24:34.618Z,9.90
2023-05-09T06:27:09.606Z,11.35
2023-05-09T06:29:36.133Z,7.85
2023-05-09T06:32:02.622Z,8.77
2023-05-09T06:34:30.454Z,9.00
2023-05-09T06:36:56.993Z,7.72
2023-05-09T06:39:23.512Z,9.27
2023-05-09T06:41:50.201Z,9.90
2023-05-09T06:44:16.687Z,9.23
2023-05-09T06:46:43.399Z,8.65
2023-05-09T06:49:09.948Z,8.30
2023-05-09T06:51:37.794Z,8.15
2023-05-09T06:54:04.545Z,10.00
2023-05-09T06:56:31.076Z,11.90
2023-05-09T06:58:57.668Z,8.85
2023-05-09T07:01:24.261Z,9.75
2023-05-09T07:03:53.357Z,9.70
2023-05-09T07:06:24.567Z,9.15
2023-05-09T07:08:57.872Z,10.70
2023-05-09T07:11:28.092Z,9.07
2023-05-09T07:13:54.601Z,10.75
2023-05-09T07:16:21.281Z,9.00
2023-05-09T07:18:47.956Z,9.52
2023-05-09T07:21:14.633Z,9.77
2023-05-09T07:23:41.171Z,8.40
2023-05-09T07:26:09.089Z,10.80
2023-05-09T07:28:35.640Z,11.77
2023-05-09T07:31:02.194Z,9.65
2023-05-09T07:33:28.795Z,14.97
2023-05-09T07:35:55.323Z,9.07
2023-05-09T07:38:21.954Z,8.85
2023-05-09T07:40:54.561Z,9.23
2023-05-09T07:43:22.615Z,9.18
2023-05-09T07:45:49.354Z,10.33
2023-05-09T07:48:16.070Z,9.00
2023-05-09T07:50:42.510Z,10.60
2023-05-09T07:53:09.219Z,9.60
2023-05-09T07:55:35.735Z,10.05
2023-05-09T07:58:02.312Z,9.87
2023-05-09T08:00:30.239Z,9.57
2023-05-09T08:02:56.977Z,10.20
2023-05-09T08:05:23.597Z,10.35
2023-05-09T08:07:50.124Z,11.23
2023-05-09T08:10:16.691Z,14.53
2023-05-09T08:12:43.457Z,12.32
2023-05-09T08:15:10.916Z,9.68
2023-05-09T08:17:38.974Z,9.02
2023-05-09T08:20:06.269Z,12.32
2023-05-09T08:22:32.805Z,9.17
2023-05-09T08:24:59.264Z,10.23
2023-05-09T08:27:25.806Z,9.18
2023-05-09T08:29:52.334Z,8.75
2023-05-09T08:32:18.878Z,9.70
2023-05-09T08:34:46.711Z,9.27
2023-05-09T08:37:15.193Z,9.95
2023-05-09T08:39:42.592Z,9.60
2023-05-09T08:42:10.038Z,9.65
2023-05-09T08:44:36.782Z,10.70
2023-05-09T08:47:04.283Z,10.70
2023-05-09T08:49:31.625Z,12.55
2023-05-09T08:51:59.988Z,10.88
2023-05-09T08:54:27.052Z,11.50
2023-05-09T08:56:53.916Z,10.93
2023-05-09T08:59:20.946Z,11.27
2023-05-09T09:01:47.882Z,12.88
2023-05-09T09:04:14.633Z,10.55
2023-05-09T09:06:41.852Z,12.18
2023-05-09T09:09:12.907Z,13.80
2023-05-09T09:11:40.807Z,11.87
2023-05-09T09:14:12.447Z,11.70
2023-05-09T09:16:41.031Z,13.25
2023-05-09T09:19:11.732Z,14.02
2023-05-09T09:21:41.146Z,13.48
2023-05-09T09:24:12.006Z,14.13
2023-05-09T09:26:46.311Z,14.93
2023-05-09T09:29:13.408Z,15.25
2023-05-09T09:31:44.825Z,14.70
2023-05-09T09:34:12.995Z,14.50
2023-05-09T09:36:41.429Z,14.20
2023-05-09T09:39:09.265Z,15.80
2023-05-09T09:41:36.986Z,14.68
2023-05-09T09:44:07.310Z,13.68
2023-05-09T09:46:41.556Z,15.18
2023-05-09T09:49:09.592Z,14.43
2023-05-09T09:51:36.133Z,15.05
2023-05-09T09:54:03.092Z,13.85
2023-05-09T09:56:43.596Z,13.70
2023-05-09T09:59:11.577Z,14.80
2023-05-09T10:01:58.310Z,15.33
2023-05-09T10:04:26.335Z,15.93
2023-05-09T10:06:54.044Z,15.40
2023-05-09T10:09:21.869Z,16.30
2023-05-09T10:11:51.265Z,16.92
2023-05-09T10:14:19.211Z,17.03
2023-05-09T10:16:47.646Z,15.77
2023-05-09T10:19:18.087Z,15.10
2023-05-09T10:21:49.537Z,13.35
2023-05-09T10:24:18.197Z,15.32
2023-05-09T10:26:49.504Z,14.27
2023-05-09T10:29:22.660Z,15.15
2023-05-09T10:31:54.161Z,14.13
2023-05-09T10:34:22.607Z,13.55
2023-05-09T10:36:49.670Z,15.90
2023-05-09T10:39:17.081Z,14.60
2023-05-09T10:41:44.038Z,14.07
2023-05-09T10:44:10.734Z,12.93
2023-05-09T10:46:39.227Z,13.73
2023-05-09T10:49:06.880Z,13.25
2023-05-09T10:51:33.567Z,14.50
2023-05-09T10:54:00.148Z,14.63
2023-05-09T10:56:29.674Z,13.50
2023-05-09T10:58:56.444Z,11.65
2023-05-09T11:01:31.033Z,12.55
2023-05-09T11:03:59.318Z,11.57
2023-05-09T11:06:43.706Z,12.27
2023-05-09T11:09:25.847Z,12.02
2023-05-09T11:11:53.168Z,11.45
2023-05-09T11:14:30.191Z,11.25
2023-05-09T11:17:00.811Z,10.93
2023-05-09T11:19:53.850Z,11.10
2023-05-09T11:22:22.347Z,11.70
2023-05-09T11:24:50.528Z,11.48
2023-05-09T11:27:20.154Z,10.43
2023-05-09T11:29:50.854Z,10.07
2023-05-09T11:32:18.330Z,10.15
2023-05-09T11:34:46.747Z,9.82
2023-05-09T11:37:17.609Z,10.50
2023-05-09T11:39:56.161Z,12.52
2023-05-09T11:42:23.729Z,10.07
2023-05-09T11:44:51.001Z,9.70
2023-05-09T11:47:18.037Z,10.07
2023-05-09T11:49:45.845Z,10.45
2023-05-09T11:52:12.432Z,10.23
2023-05-09T11:54:39.183Z,10.63
2023-05-09T11:57:06.274Z,10.90
2023-05-09T11:59:33.695Z,11.93
2023-05-09T12:02:03.230Z,9.35
2023-05-09T12:04:30.651Z,9.70
2023-05-09T12:06:59.714Z,10.60
2023-05-09T12:09:29.799Z,11.45
2023-05-09T12:11:56.327Z,11.48
2023-05-09T12:14:29.855Z,11.95
2023-05-09T12:16:56.905Z,9.93
2023-05-09T12:19:24.554Z,9.33
2023-05-09T12:21:54.906Z,8.90
2023-05-09T12:24:22.890Z,9.18
2023-05-09T12:26:50.243Z,9.45
2023-05-09T12:29:17.575Z,9.98
2023-05-09T12:31:44.665Z,10.00
2023-05-09T12:34:11.456Z,10.60
2023-05-09T12:36:38.449Z,10.90
2023-05-09T12:39:09.178Z,9.20
2023-05-09T12:41:50.119Z,9.20
2023-05-09T12:44:27.367Z,11.93
2023-05-09T12:46:56.608Z,8.82
2023-05-09T12:49:23.814Z,9.25
2023-05-09T12:51:51.556Z,11.38
2023-05-09T12:54:20.688Z,8.88
2023-05-09T12:56:48.696Z,8.07
2023-05-09T12:59:20.980Z,7.28
2023-05-09T13:01:51.873Z,6.65
2023-05-09T13:04:20.270Z,6.90
2023-05-09T13:06:51.033Z,8.27
2023-05-09T13:09:18.490Z,7.63
2023-05-09T13:11:45.446Z,6.82
2023-05-09T13:14:13.689Z,6.07
2023-05-09T13:16:40.298Z,6.22
2023-05-09T13:19:07.247Z,7.40
2023-05-09T13:21:34.468Z,6.63
2023-05-09T13:24:01.153Z,6.38
2023-05-09T13:26:27.924Z,6.68
2023-05-09T13:28:54.386Z,7.38
2023-05-09T13:31:22.593Z,6.78
2023-05-09T13:33:51.574Z,7.57
2023-05-09T13:36:18.858Z,7.30
2023-05-09T13:38:45.536Z,8.52
2023-05-09T13:41:12.318Z,8.48
2023-05-09T13:43:39.771Z,7.63
2023-05-09T13:46:06.540Z,9.57
2023-05-09T13:48:34.560Z,6.95
2023-05-09T13:51:01.019Z,6.68
2023-05-09T13:53:27.661Z,6.90
2023-05-09T13:55:54.214Z,6.90
2023-05-09T13:58:20.850Z,6.33
2023-05-09T14:00:47.306Z,9.27
2023-05-09T14:03:13.846Z,6.40
2023-05-09T14:05:41.869Z,6.57
2023-05-09T14:08:08.444Z,6.00
2023-05-09T14:10:34.958Z,5.53
2023-05-09T14:13:01.509Z,6.15
2023-05-09T14:15:28.071Z,5.30
2023-05-09T14:17:54.557Z,6.30
2023-05-09T14:20:21.223Z,6.07
2023-05-09T14:22:49.305Z,5.20
2023-05-09T14:25:15.891Z,6.65
2023-05-09T14:27:42.427Z,5.72
2023-05-09T14:30:09.988Z,7.45
2023-05-09T14:32:36.492Z,5.75
2023-05-09T14:35:03.235Z,6.30
2023-05-09T14:37:29.808Z,5.50
2023-05-09T14:39:57.656Z,5.72
2023-05-09T14:42:24.143Z,5.82
2023-05-09T14:44:50.775Z,6.03
2023-05-09T14:47:17.341Z,5.20
2023-05-09T14:49:43.879Z,5.18
2023-05-09T14:52:10.382Z,7.68
2023-05-09T14:54:37.069Z,6.15
2023-05-09T14:57:04.999Z,5.70
2023-05-09T14:59:31.701Z,6.60
2023-05-09T15:01:58.330Z,5.85
2023-05-09T15:04:25.167Z,6.43
2023-05-09T15:06:51.754Z,5.95
2023-05-09T15:09:18.441Z,5.75
2023-05-09T15:11:48.229Z,6.77
2023-05-09T15:14:17.178Z,6.40
2023-05-09T15:16:43.713Z,6.13
2023-05-09T15:19:10.255Z,7.82
2023-05-09T15:21:36.803Z,8.35
2023-05-09T15:24:04.590Z,6.20
2023-05-09T15:26:31.094Z,8.30
2023-05-09T15:28:57.685Z,5.75
2023-05-09T15:31:25.817Z,7.00
2023-05-09T15:33:52.480Z,6.70
2023-05-09T15:36:19.172Z,6.93
2023-05-09T15:38:45.654Z,6.05
2023-05-09T15:41:12.121Z,6.85
2023-05-09T15:43:38.587Z,6.30
2023-05-09T15:46:05.262Z,12.50
2023-05-09T15:48:33.288Z,12.60
2023-05-09T15:50:59.779Z,7.68
2023-05-09T15:53:26.476Z,8.68
2023-05-09T15:55:52.994Z,9.65
2023-05-09T15:58:19.559Z,7.57
2023-05-09T16:00:46.062Z,6.70
2023-05-09T16:03:12.655Z,6.30
2023-05-09T16:05:40.713Z,5.93
2023-05-09T16:08:07.352Z,6.82
2023-05-09T16:10:33.913Z,6.53
2023-05-09T16:13:00.451Z,6.90
2023-05-09T16:15:27.143Z,5.90
2023-05-09T16:17:53.599Z,5.78
2023-05-09T16:20:20.265Z,5.88
2023-05-09T16:22:48.256Z,5.95
2023-05-09T16:25:16.047Z,6.57
2023-05-09T16:27:42.616Z,6.55
2023-05-09T16:30:10.150Z,7.40
2023-05-09T16:32:36.730Z,6.10
2023-05-09T16:35:03.659Z,7.35
2023-05-09T16:37:30.209Z,6.43
2023-05-09T16:39:58.042Z,7.82
2023-05-09T16:42:24.596Z,5.93
2023-05-09T16:44:51.184Z,6.50
2023-05-09T16:47:17.762Z,5.60
2023-05-09T16:49:44.287Z,5.87
2023-05-09T16:52:10.756Z,6.25
2023-05-09T16:54:37.283Z,6.32
2023-05-09T16:57:05.211Z,6.93
2023-05-09T16:59:31.729Z,5.97
2023-05-09T17:01:58.311Z,7.63
2023-05-09T17:04:25.120Z,5.93
2023-05-09T17:06:51.647Z,7.28
2023-05-09T17:09:18.559Z,6.45
2023-05-09T17:11:45.232Z,5.90
2023-05-09T17:14:13.089Z,6.83
2023-05-09T17:16:39.657Z,7.28
2023-05-09T17:19:06.191Z,6.70
2023-05-09T17:21:32.757Z,5.88
2023-05-09T17:23:59.309Z,7.35
2023-05-09T17:26:27.338Z,5.67
2023-05-09T17:28:53.847Z,6.10
2023-05-09T17:31:21.826Z,6.13
2023-05-09T17:33:48.402Z,6.43
2023-05-09T17:36:15.068Z,6.07
2023-05-09T17:38:41.607Z,6.00
2023-05-09T17:41:08.157Z,6.03
2023-05-09T17:43:34.645Z,6.18
2023-05-09T17:46:01.209Z,5.57
2023-05-09T17:48:29.027Z,7.13
2023-05-09T17:50:55.505Z,6.90
2023-05-09T17:53:22.128Z,6.35
2023-05-09T17:55:48.618Z,6.47
2023-05-09T17:58:15.300Z,6.03
2023-05-09T18:00:41.812Z,6.80
2023-05-09T18:03:08.455Z,6.30
2023-05-09T18:05:36.409Z,6.60
2023-05-09T18:08:02.971Z,6.25
2023-05-09T18:10:29.638Z,6.45
2023-05-09T18:12:56.196Z,6.30
2023-05-09T18:15:24.289Z,5.40
2023-05-09T18:17:50.817Z,5.15
2023-05-09T18:20:17.665Z,6.25
2023-05-09T18:22:46.767Z,5.25
2023-05-09T18:25:13.436Z,5.57
2023-05-09T18:27:39.899Z,5.00
2023-05-09T18:30:07.916Z,5.55
2023-05-09T18:32:34.485Z,5.97
2023-05-09T18:35:01.169Z,6.60
2023-05-09T18:37:27.654Z,5.15
2023-05-09T18:39:55.537Z,7.70
2023-05-09T18:42:22.034Z,6.47
2023-05-09T18:44:48.531Z,5.60
2023-05-09T18:47:15.107Z,6.45
2023-05-09T18:49:41.755Z,5.97
2023-05-09T18:52:08.499Z,7.00
2023-05-09T18:54:35.043Z,7.60
2023-05-09T18:57:03.193Z,6.75
2023-05-09T18:59:29.670Z,5.28
2023-05-09T19:01:56.152Z,5.90
2023-05-09T19:04:22.766Z,6.53
2023-05-09T19:06:49.550Z,8.00
2023-05-09T19:09:16.105Z,6.30
2023-05-09T19:11:42.662Z,6.20
2023-05-09T19:14:10.527Z,6.50
2023-05-09T19:16:37.172Z,6.33
2023-05-09T19:19:03.641Z,7.07
2023-05-09T19:21:30.364Z,6.00
2023-05-09T19:23:56.893Z,5.80
2023-05-09T19:26:23.383Z,6.53
2023-05-09T19:28:49.962Z,8.77
2023-05-09T19:31:18.095Z,7.13
2023-05-09T19:33:44.691Z,7.47
2023-05-09T19:36:11.469Z,7.45
2023-05-09T19:38:38.034Z,7.45
2023-05-09T19:41:04.518Z,7.93
2023-05-09T19:43:31.050Z,6.80
2023-05-09T19:45:57.590Z,7.15
2023-05-09T19:48:25.582Z,7.85
2023-05-09T19:50:56.260Z,6.25
2023-05-09T19:53:22.910Z,8.33
2023-05-09T19:55:49.389Z,8.00
2023-05-09T19:58:17.676Z,7.00
2023-05-09T20:00:44.565Z,6.30
2023-05-09T20:03:11.195Z,6.50
2023-05-09T20:05:39.119Z,5.70
2023-05-09T20:08:05.843Z,7.18
2023-05-09T20:10:32.364Z,6.22
2023-05-09T20:12:58.880Z,5.43
2023-05-09T20:15:25.716Z,6.10
2023-05-09T20:17:52.265Z,7.03
2023-05-09T20:20:19.037Z,5.53
2023-05-09T20:22:47.045Z,8.52
2023-05-09T20:25:13.691Z,8.30
2023-05-09T20:27:40.293Z,5.75
2023-05-09T20:30:07.894Z,5.67
2023-05-09T20:32:34.451Z,6.93
2023-05-09T20:35:00.975Z,7.75
2023-05-09T20:37:27.495Z,8.52
2023-05-09T20:39:55.353Z,9.68
2023-05-09T20:42:22.039Z,8.17
2023-05-09T20:44:48.606Z,10.80
2023-05-09T20:47:15.156Z,12.38
2023-05-09T20:49:41.657Z,11.27
2023-05-09T20:52:08.438Z,10.88
2023-05-09T20:54:35.045Z,11.20
2023-05-09T20:57:03.231Z,11.15
2023-05-09T20:59:29.757Z,11.75
2023-05-09T21:01:56.367Z,11.50
2023-05-09T21:04:22.907Z,12.18
2023-05-09T21:06:49.679Z,13.23
2023-05-09T21:09:16.337Z,12.13
2023-05-09T21:11:42.821Z,11.60
2023-05-09T21:14:10.782Z,10.32
2023-05-09T21:16:37.383Z,11.40
2023-05-09T21:19:03.991Z,11.13
2023-05-09T21:21:30.983Z,11.48
2023-05-09T21:23:57.477Z,10.85
2023-05-09T21:26:24.048Z,10.93
2023-05-09T21:28:50.886Z,10.90
2023-05-09T21:31:18.901Z,11.63
2023-05-09T21:33:45.435Z,13.13
2023-05-09T21:36:11.941Z,13.20
2023-05-09T21:38:38.593Z,11.20
2023-05-09T21:41:05.367Z,10.90
2023-05-09T21:43:32.023Z,11.57
2023-05-09T21:45:58.499Z,13.02
2023-05-09T21:48:26.344Z,10.68
2023-05-09T21:50:52.958Z,11.35
2023-05-09T21:53:19.469Z,10.55
2023-05-09T21:55:46.004Z,11.27
2023-05-09T21:58:12.616Z,12.13
2023-05-09T22:00:39.211Z,11.07
2023-05-09T22:03:05.920Z,11.93
2023-05-09T22:05:33.820Z,12.82
2023-05-09T22:08:00.478Z,12.70
2023-05-09T22:10:27.147Z,12.80
2023-05-09T22:12:53.666Z,11.52
2023-05-09T22:15:20.552Z,11.57
2023-05-09T22:17:47.165Z,11.88
2023-05-09T22:20:14.043Z,10.67
2023-05-09T22:22:42.053Z,10.75
2023-05-09T22:25:09.216Z,11.55
2023-05-09T22:27:35.785Z,13.48
2023-05-09T22:30:02.317Z,13.25
2023-05-09T22:32:28.894Z,11.90
2023-05-09T22:34:55.410Z,12.40
2023-05-09T22:37:21.977Z,11.85
2023-05-09T22:39:49.924Z,10.25
2023-05-09T22:42:16.447Z,11.48
2023-05-09T22:44:43.090Z,11.00
2023-05-09T22:47:09.604Z,12.60
2023-05-09T22:49:36.126Z,11.75
2023-05-09T22:52:02.761Z,11.48
2023-05-09T22:54:29.300Z,12.05
2023-05-09T22:56:57.103Z,11.80
2023-05-09T22:59:23.692Z,11.15
2023-05-09T23:01:50.341Z,10.90
2023-05-09T23:04:16.968Z,10.07
2023-05-09T23:06:43.449Z,10.52
2023-05-09T23:09:09.999Z,11.47
2023-05-09T23:11:36.597Z,12.60
2023-05-09T23:14:04.618Z,10.13
2023-05-09T23:16:31.091Z,11.18
2023-05-09T23:18:57.640Z,10.73
2023-05-09T23:21:24.182Z,11.77
2023-05-09T23:23:50.650Z,11.05
2023-05-09T23:26:17.230Z,10.75
2023-05-09T23:28:43.679Z,10.93
2023-05-09T23:31:15.219Z,10.30
2023-05-09T23:33:41.775Z,10.13
2023-05-09T23:36:09.341Z,10.35
2023-05-09T23:38:35.942Z,10.98
2023-05-09T23:41:04.524Z,10.52
2023-05-09T23:43:30.996Z,10.70
2023-05-09T23:45:57.482Z,11.60
2023-05-09T23:48:25.527Z,11.35
2023-05-09T23:50:52.095Z,10.07
2023-05-09T23:53:18.540Z,9.10
2023-05-09T23:55:45.076Z,9.27
2023-05-09T23:58:12.246Z,8.87
